createdAt,value
2019-04-04T00:01:37.711Z,64.35
2019-04-04T00:04:07.208Z,64.29
2019-04-04T00:06:36.655Z,64.26
2019-04-04T00:09:09.844Z,64.33
2019-04-04T00:11:39.378Z,64.25
2019-04-04T00:14:09.068Z,64.36
2019-04-04T00:16:38.526Z,64.39
2019-04-04T00:19:07.979Z,64.17
2019-04-04T00:21:37.553Z,64.26
2019-04-04T00:24:08.929Z,64.65
2019-04-04T00:26:38.320Z,64.56
2019-04-04T00:29:07.770Z,64.55
2019-04-04T00:31:37.259Z,64.66
2019-04-04T00:34:06.791Z,64.72
2019-04-04T00:36:36.272Z,64.61
2019-04-04T00:39:26.655Z,64.79
2019-04-04T00:41:56.327Z,64.95
2019-04-04T00:44:25.775Z,64.92
2019-04-04T00:46:55.322Z,64.86
2019-04-04T00:49:24.789Z,64.97
2019-04-04T00:51:54.238Z,65.10
2019-04-04T00:54:23.737Z,65.06
2019-04-04T00:56:53.217Z,64.97
2019-04-04T00:59:23.055Z,65.02
2019-04-04T01:01:53.168Z,64.87
2019-04-04T01:04:22.777Z,65.12
2019-04-04T01:06:52.183Z,64.95
2019-04-04T01:09:21.727Z,64.89
2019-04-04T01:11:51.876Z,64.79
2019-04-04T01:14:21.482Z,64.94
2019-04-04T01:16:50.928Z,64.98
2019-04-04T01:19:39.772Z,64.88
2019-04-04T01:22:09.297Z,65.04
2019-04-04T01:24:38.791Z,65.08
2019-04-04T01:27:08.270Z,64.91
2019-04-04T01:29:39.000Z,65.14
2019-04-04T01:32:09.177Z,64.99
2019-04-04T01:34:38.641Z,64.92
2019-04-04T01:37:08.107Z,64.86
2019-04-04T01:39:37.605Z,64.84
2019-04-04T01:42:07.893Z,65.40
2019-04-04T01:44:40.163Z,65.76
2019-04-04T01:47:09.920Z,65.71
2019-04-04T01:49:39.463Z,65.67
2019-04-04T01:52:08.905Z,65.88
2019-04-04T01:54:41.416Z,65.82
2019-04-04T01:57:10.908Z,65.41
2019-04-04T01:59:41.980Z,65.53
2019-04-04T02:02:11.750Z,65.48
2019-04-04T02:04:41.243Z,65.58
2019-04-04T02:07:10.697Z,65.76
2019-04-04T02:09:40.163Z,65.34
2019-04-04T02:12:09.690Z,65.72
2019-04-04T02:14:39.167Z,65.93
2019-04-04T02:17:08.630Z,65.94
2019-04-04T02:19:38.188Z,66.12
2019-04-04T02:22:07.739Z,66.06
2019-04-04T02:24:37.308Z,66.06
2019-04-04T02:27:07.547Z,66.13
2019-04-04T02:29:37.014Z,65.91
2019-04-04T02:32:08.133Z,65.72
2019-04-04T02:34:38.429Z,65.68
2019-04-04T02:37:21.339Z,65.50
2019-04-04T02:39:51.417Z,65.70
2019-04-04T02:42:22.287Z,66.11
2019-04-04T02:44:52.455Z,66.21
2019-04-04T02:47:22.117Z,66.13
2019-04-04T02:49:51.591Z,66.26
2019-04-04T02:52:21.077Z,66.26
2019-04-04T02:54:50.672Z,66.20
2019-04-04T02:57:22.150Z,66.32
2019-04-04T02:59:53.519Z,66.63
2019-04-04T03:02:22.668Z,66.82
2019-04-04T03:04:52.164Z,67.08
2019-04-04T03:07:21.605Z,67.38
2019-04-04T03:09:51.363Z,67.57
2019-04-04T03:12:20.883Z,68.26
2019-04-04T03:14:50.876Z,68.50
2019-04-04T03:17:20.575Z,68.56
2019-04-04T03:19:50.078Z,68.67
2019-04-04T03:22:19.507Z,68.62
2019-04-04T03:24:48.990Z,68.49
2019-04-04T03:27:18.677Z,68.22
2019-04-04T03:29:48.161Z,68.06
2019-04-04T03:32:17.811Z,67.98
2019-04-04T03:34:51.375Z,67.93
2019-04-04T03:37:21.508Z,67.97
2019-04-04T03:39:53.117Z,68.09
2019-04-04T03:42:22.306Z,68.22
2019-04-04T03:44:53.255Z,68.19
2019-04-04T03:47:22.981Z,68.18
2019-04-04T03:49:56.359Z,68.16
2019-04-04T03:52:23.691Z,68.21
2019-04-04T03:54:56.241Z,68.18
2019-04-04T03:57:24.409Z,68.30
2019-04-04T03:59:53.908Z,68.37
2019-04-04T04:02:23.355Z,68.15
2019-04-04T04:04:52.904Z,68.17
2019-04-04T04:07:22.399Z,68.23
2019-04-04T04:09:51.894Z,68.11
2019-04-04T04:12:21.329Z,68.09
2019-04-04T04:14:53.813Z,68.00
2019-04-04T04:17:21.981Z,68.00
2019-04-04T04:19:51.461Z,67.81
2019-04-04T04:22:20.916Z,67.74
2019-04-04T04:24:50.419Z,67.67
2019-04-04T04:27:19.876Z,67.49
2019-04-04T04:29:49.357Z,67.35
2019-04-04T04:32:21.231Z,67.30
2019-04-04T04:34:50.067Z,67.33
2019-04-04T04:37:20.364Z,67.15
2019-04-04T04:39:50.586Z,67.18
2019-04-04T04:42:21.329Z,67.13
2019-04-04T04:44:50.971Z,67.02
2019-04-04T04:47:22.910Z,67.07
2019-04-04T04:49:55.018Z,67.16
2019-04-04T04:52:22.823Z,67.05
2019-04-04T04:54:54.790Z,66.96
2019-04-04T04:57:29.867Z,66.93
2019-04-04T04:59:54.910Z,67.02
2019-04-04T05:02:24.467Z,67.09
2019-04-04T05:04:53.921Z,67.14
2019-04-04T05:07:23.418Z,67.01
2019-04-04T05:09:52.884Z,67.01
2019-04-04T05:12:22.395Z,67.06
2019-04-04T05:14:51.844Z,67.02
2019-04-04T05:17:21.397Z,67.11
2019-04-04T05:19:50.887Z,67.02
2019-04-04T05:22:20.395Z,67.09
2019-04-04T05:25:06.719Z,67.20
2019-04-04T05:27:21.134Z,66.96
2019-04-04T05:29:50.644Z,66.89
2019-04-04T05:32:21.774Z,66.73
2019-04-04T05:34:51.381Z,66.70
2019-04-04T05:37:20.824Z,66.77
2019-04-04T05:39:51.355Z,66.70
2019-04-04T05:42:21.665Z,66.72
2019-04-04T05:44:51.125Z,66.75
2019-04-04T05:47:22.892Z,66.72
2019-04-04T05:49:52.018Z,66.65
2019-04-04T05:52:21.530Z,66.56
2019-04-04T05:54:50.983Z,66.58
2019-04-04T05:57:20.769Z,66.58
2019-04-04T05:59:50.254Z,66.58
2019-04-04T06:02:19.803Z,66.69
2019-04-04T06:04:51.334Z,66.65
2019-04-04T06:07:20.500Z,66.55
2019-04-04T06:09:49.942Z,66.52
2019-04-04T06:12:19.434Z,66.45
2019-04-04T06:14:48.894Z,66.42
2019-04-04T06:17:18.377Z,66.56
2019-04-04T06:19:47.827Z,66.84
2019-04-04T06:22:20.777Z,66.85
2019-04-04T06:24:48.516Z,66.29
2019-04-04T06:27:18.010Z,66.80
2019-04-04T06:29:48.294Z,66.73
2019-04-04T06:32:17.784Z,66.67
2019-04-04T06:34:47.274Z,66.51
2019-04-04T06:37:18.054Z,66.52
2019-04-04T06:39:47.914Z,66.91
2019-04-04T06:42:17.408Z,66.76
2019-04-04T06:44:46.866Z,66.42
2019-04-04T06:47:16.604Z,66.95
2019-04-04T06:49:47.762Z,66.28
2019-04-04T06:52:18.451Z,65.94
2019-04-04T06:54:48.641Z,65.68
2019-04-04T06:57:18.138Z,65.44
2019-04-04T06:59:47.586Z,65.38
2019-04-04T07:02:17.160Z,65.45
2019-04-04T07:04:46.631Z,65.75
2019-04-04T07:07:16.231Z,65.26
2019-04-04T07:09:45.707Z,65.51
2019-04-04T07:12:22.261Z,65.66
2019-04-04T07:14:49.371Z,65.34
2019-04-04T07:17:17.605Z,64.76
2019-04-04T07:19:47.121Z,64.84
2019-04-04T07:22:16.611Z,64.51
2019-04-04T07:24:46.081Z,64.35
2019-04-04T07:27:16.263Z,64.30
2019-04-04T07:29:46.470Z,64.10
2019-04-04T07:32:15.923Z,63.04
2019-04-04T07:34:45.943Z,63.44
2019-04-04T07:37:15.503Z,64.06
2019-04-04T07:39:44.962Z,63.38
2019-04-04T07:42:15.879Z,63.75
2019-04-04T07:44:45.660Z,63.76
2019-04-04T07:47:16.037Z,63.82
2019-04-04T07:49:46.210Z,64.14
2019-04-04T07:52:17.185Z,63.84
2019-04-04T07:54:46.974Z,63.87
2019-04-04T07:57:17.350Z,63.61
2019-04-04T07:59:47.662Z,63.56
2019-04-04T08:02:17.140Z,63.51
2019-04-04T08:04:46.711Z,63.42
2019-04-04T08:07:16.279Z,63.61
2019-04-04T08:09:45.747Z,63.05
2019-04-04T08:12:15.242Z,63.13
2019-04-04T08:14:44.710Z,62.82
2019-04-04T08:17:14.226Z,63.06
2019-04-04T08:19:43.702Z,63.42
2019-04-04T08:22:13.336Z,62.61
2019-04-04T08:24:42.897Z,63.28
2019-04-04T08:27:12.388Z,63.05
2019-04-04T08:29:41.848Z,63.49
2019-04-04T08:32:11.334Z,62.52
2019-04-04T08:34:40.847Z,63.04
2019-04-04T08:37:10.311Z,62.64
2019-04-04T08:39:39.846Z,62.77
2019-04-04T08:42:09.331Z,63.17
2019-04-04T08:44:38.866Z,62.88
2019-04-04T08:47:08.411Z,63.04
2019-04-04T08:49:37.866Z,63.21
2019-04-04T08:52:16.584Z,62.47
2019-04-04T08:54:38.650Z,62.88
2019-04-04T08:57:08.149Z,62.80
2019-04-04T08:59:37.636Z,62.53
2019-04-04T09:02:07.184Z,62.22
2019-04-04T09:04:36.691Z,62.44
2019-04-04T09:07:06.150Z,62.55
2019-04-04T09:09:35.785Z,62.98
2019-04-04T09:12:05.636Z,63.07
2019-04-04T09:14:35.122Z,63.08
2019-04-04T09:17:04.588Z,62.51
2019-04-04T09:19:34.084Z,62.74
2019-04-04T09:22:03.573Z,61.86
2019-04-04T09:24:33.060Z,61.65
2019-04-04T09:27:02.633Z,62.31
2019-04-04T09:29:32.092Z,61.93
2019-04-04T09:32:01.630Z,62.27
2019-04-04T09:34:31.131Z,62.05
2019-04-04T09:37:00.599Z,60.97
2019-04-04T09:39:30.087Z,61.91
2019-04-04T09:41:59.552Z,62.14
2019-04-04T09:44:29.047Z,61.11
2019-04-04T09:47:05.372Z,60.48
2019-04-04T09:49:29.813Z,58.83
2019-04-04T09:51:59.319Z,58.02
2019-04-04T09:54:28.826Z,58.09
2019-04-04T09:56:58.431Z,57.41
2019-04-04T09:59:27.945Z,58.16
2019-04-04T10:01:57.388Z,57.57
2019-04-04T10:04:26.899Z,58.98
2019-04-04T10:06:56.433Z,59.47
2019-04-04T10:09:25.929Z,59.33
2019-04-04T10:11:55.510Z,58.96
2019-04-04T10:14:25.135Z,57.40
2019-04-04T10:16:54.567Z,57.44
2019-04-04T10:19:24.062Z,56.65
2019-04-04T10:21:53.529Z,56.99
2019-04-04T10:24:23.042Z,56.61
2019-04-04T10:26:52.589Z,57.28
2019-04-04T10:29:22.201Z,56.59
2019-04-04T10:31:51.707Z,56.67
2019-04-04T10:34:21.202Z,56.19
2019-04-04T10:36:50.771Z,56.42
2019-04-04T10:39:28.829Z,55.46
2019-04-04T10:41:51.455Z,55.20
2019-04-04T10:44:20.970Z,54.85
2019-04-04T10:46:50.437Z,54.82
2019-04-04T10:49:19.932Z,54.77
2019-04-04T10:51:49.432Z,55.01
2019-04-04T10:54:18.914Z,53.87
2019-04-04T10:56:48.454Z,54.19
2019-04-04T10:59:17.981Z,54.81
2019-04-04T11:01:47.484Z,53.64
2019-04-04T11:04:17.020Z,54.12
2019-04-04T11:06:46.476Z,53.76
2019-04-04T11:09:15.972Z,53.65
2019-04-04T11:11:45.472Z,53.85
2019-04-04T11:14:15.001Z,54.24
2019-04-04T11:16:44.646Z,53.83
2019-04-04T11:19:14.131Z,53.82
2019-04-04T11:21:43.600Z,52.84
2019-04-04T11:24:13.167Z,53.08
2019-04-04T11:26:42.647Z,54.27
2019-04-04T11:29:12.151Z,54.25
2019-04-04T11:31:41.817Z,54.16
2019-04-04T11:34:11.302Z,54.51
2019-04-04T11:36:40.787Z,54.58
2019-04-04T11:39:10.303Z,54.56
2019-04-04T11:41:39.838Z,55.67
2019-04-04T11:44:09.391Z,55.19
2019-04-04T11:46:38.915Z,56.11
2019-04-04T11:49:08.472Z,56.30
2019-04-04T11:51:37.926Z,55.50
2019-04-04T11:54:07.483Z,54.85
2019-04-04T11:56:37.046Z,55.81
2019-04-04T11:59:08.120Z,56.65
2019-04-04T12:01:39.457Z,56.88
2019-04-04T12:04:09.025Z,58.21
2019-04-04T12:06:38.605Z,58.36
2019-04-04T12:09:08.887Z,59.36
2019-04-04T12:11:38.396Z,58.49
2019-04-04T12:14:08.039Z,57.97
2019-04-04T12:16:37.517Z,57.92
2019-04-04T12:19:07.040Z,57.07
2019-04-04T12:21:36.700Z,57.86
2019-04-04T12:24:06.347Z,58.12
2019-04-04T12:26:35.825Z,57.55
2019-04-04T12:29:05.430Z,57.99
2019-04-04T12:31:35.055Z,57.75
2019-04-04T12:34:04.517Z,57.56
2019-04-04T12:36:34.035Z,56.96
2019-04-04T12:39:03.630Z,57.36
2019-04-04T12:41:33.134Z,57.70
2019-04-04T12:44:02.618Z,56.87
2019-04-04T12:46:32.151Z,57.94
2019-04-04T12:49:01.741Z,56.92
2019-04-04T12:51:31.206Z,58.28
2019-04-04T12:54:00.751Z,56.97
2019-04-04T12:56:30.368Z,56.65
2019-04-04T12:58:59.867Z,56.88
2019-04-04T13:01:29.327Z,56.25
2019-04-04T13:03:58.834Z,56.37
2019-04-04T13:06:28.305Z,56.67
2019-04-04T13:08:57.830Z,56.63
2019-04-04T13:11:27.557Z,56.31
2019-04-04T13:13:57.123Z,56.97
2019-04-04T13:16:26.618Z,57.37
2019-04-04T13:18:56.123Z,58.59
2019-04-04T13:21:25.696Z,57.99
2019-04-04T13:23:55.175Z,57.98
2019-04-04T13:26:24.799Z,57.93
2019-04-04T13:28:54.268Z,58.65
2019-04-04T13:31:23.758Z,57.17
2019-04-04T13:33:53.420Z,58.26
2019-04-04T13:36:22.940Z,57.18
2019-04-04T13:38:55.012Z,57.11
2019-04-04T13:41:23.627Z,57.48
2019-04-04T13:43:53.611Z,57.48
2019-04-04T13:46:25.891Z,57.86
2019-04-04T13:48:54.963Z,57.19
2019-04-04T13:51:25.636Z,57.87
2019-04-04T13:53:55.194Z,58.46
2019-04-04T13:56:24.702Z,58.14
2019-04-04T13:58:54.193Z,57.54
2019-04-04T14:01:25.347Z,57.69
2019-04-04T14:03:55.142Z,57.98
2019-04-04T14:06:24.664Z,58.34
2019-04-04T14:08:54.218Z,58.42
2019-04-04T14:11:23.753Z,57.81
2019-04-04T14:13:53.269Z,57.52
2019-04-04T14:16:22.771Z,58.26
2019-04-04T14:18:52.231Z,59.51
2019-04-04T14:21:21.849Z,59.78
2019-04-04T14:23:52.898Z,58.95
2019-04-04T14:26:22.949Z,58.73
2019-04-04T14:28:52.410Z,60.01
2019-04-04T14:31:21.983Z,60.59
2019-04-04T14:33:51.432Z,60.19
2019-04-04T14:36:21.059Z,60.18
2019-04-04T14:38:50.592Z,60.43
2019-04-04T14:41:20.096Z,60.12
2019-04-04T14:43:49.589Z,59.76
2019-04-04T14:46:19.078Z,58.33
2019-04-04T14:48:48.643Z,57.54
2019-04-04T14:51:18.258Z,57.36
2019-04-04T14:53:47.725Z,58.61
2019-04-04T14:56:17.235Z,59.29
2019-04-04T14:58:46.689Z,57.90
2019-04-04T15:01:16.250Z,57.04
2019-04-04T15:03:45.753Z,57.09
2019-04-04T15:06:15.241Z,57.39
2019-04-04T15:08:44.770Z,58.63
2019-04-04T15:11:23.918Z,58.36
2019-04-04T15:13:45.477Z,55.27
2019-04-04T15:16:18.976Z,56.51
2019-04-04T15:18:48.817Z,55.85
2019-04-04T15:21:18.445Z,55.51
2019-04-04T15:23:47.923Z,55.71
2019-04-04T15:26:17.414Z,55.60
2019-04-04T15:28:46.976Z,55.12
2019-04-04T15:31:16.510Z,54.58
2019-04-04T15:33:46.185Z,54.14
2019-04-04T15:36:15.679Z,53.54
2019-04-04T15:38:45.203Z,53.86
2019-04-04T15:41:15.673Z,53.76
2019-04-04T15:43:45.201Z,53.91
2019-04-04T15:46:14.697Z,53.59
2019-04-04T15:48:44.192Z,54.05
2019-04-04T15:51:13.840Z,54.96
2019-04-04T15:53:43.315Z,53.40
2019-04-04T15:56:12.887Z,53.90
2019-04-04T15:58:42.365Z,55.00
2019-04-04T16:01:11.862Z,55.59
2019-04-04T16:03:41.362Z,54.41
2019-04-04T16:06:10.916Z,54.24
2019-04-04T16:08:40.409Z,53.68
2019-04-04T16:11:09.903Z,56.01
2019-04-04T16:13:39.363Z,54.70
2019-04-04T16:16:08.956Z,53.60
2019-04-04T16:18:38.440Z,53.58
2019-04-04T16:21:08.163Z,53.37
2019-04-04T16:23:37.658Z,52.79
2019-04-04T16:26:07.218Z,52.70
2019-04-04T16:28:36.860Z,53.18
2019-04-04T16:31:06.473Z,52.99
2019-04-04T16:33:36.003Z,53.38
2019-04-04T16:36:05.718Z,53.16
2019-04-04T16:38:35.222Z,53.36
2019-04-04T16:41:04.842Z,53.67
2019-04-04T16:43:34.405Z,54.29
2019-04-04T16:46:03.962Z,54.32
2019-04-04T16:48:33.576Z,53.32
2019-04-04T16:51:03.250Z,53.59
2019-04-04T16:53:33.970Z,54.50
2019-04-04T16:56:03.582Z,53.87
2019-04-04T16:58:33.086Z,54.42
2019-04-04T17:01:02.664Z,54.52
2019-04-04T17:03:34.365Z,54.63
2019-04-04T17:06:03.696Z,55.16
2019-04-04T17:08:33.274Z,54.87
2019-04-04T17:11:02.870Z,56.31
2019-04-04T17:13:32.362Z,56.76
2019-04-04T17:16:02.002Z,56.80
2019-04-04T17:18:31.541Z,56.84
2019-04-04T17:21:01.184Z,57.12
2019-04-04T17:23:30.659Z,57.35
2019-04-04T17:26:00.188Z,57.39
2019-04-04T17:28:29.902Z,57.91
2019-04-04T17:30:59.593Z,58.16
2019-04-04T17:33:29.756Z,58.37
2019-04-04T17:35:59.334Z,58.54
2019-04-04T17:38:28.810Z,58.69
2019-04-04T17:40:58.560Z,58.74
2019-04-04T17:43:28.076Z,58.70
2019-04-04T17:45:57.639Z,59.05
2019-04-04T17:48:28.064Z,59.10
2019-04-04T17:50:58.001Z,59.20
2019-04-04T17:53:27.545Z,59.23
2019-04-04T17:55:57.138Z,59.16
2019-04-04T17:58:26.654Z,59.28
2019-04-04T18:00:56.273Z,59.34
2019-04-04T18:03:25.856Z,59.45
2019-04-04T18:05:55.423Z,59.46
2019-04-04T18:08:24.925Z,59.45
2019-04-04T18:10:54.400Z,59.61
2019-04-04T18:13:23.904Z,59.70
2019-04-04T18:15:53.537Z,59.74
2019-04-04T18:18:23.127Z,59.63
2019-04-04T18:20:52.671Z,59.91
2019-04-04T18:23:22.310Z,59.19
2019-04-04T18:25:51.808Z,59.39
2019-04-04T18:28:21.320Z,59.54
2019-04-04T18:30:51.127Z,60.58
2019-04-04T18:33:20.679Z,59.52
2019-04-04T18:35:50.220Z,59.36
2019-04-04T18:38:19.817Z,59.44
2019-04-04T18:40:49.364Z,59.79
2019-04-04T18:43:19.117Z,59.57
2019-04-04T18:45:48.578Z,59.86
2019-04-04T18:48:18.069Z,60.84
2019-04-04T18:50:47.637Z,61.08
2019-04-04T18:53:17.114Z,61.11
2019-04-04T18:55:46.805Z,60.66
2019-04-04T18:58:16.218Z,60.72
2019-04-04T19:00:47.087Z,60.94
2019-04-04T19:03:16.684Z,61.06
2019-04-04T19:05:46.397Z,61.14
2019-04-04T19:08:15.931Z,60.96
2019-04-04T19:10:45.500Z,61.19
2019-04-04T19:13:14.991Z,61.42
2019-04-04T19:15:44.757Z,61.50
2019-04-04T19:18:14.233Z,61.88
2019-04-04T19:20:43.781Z,61.66
2019-04-04T19:23:13.228Z,62.13
2019-04-04T19:25:42.790Z,62.29
2019-04-04T19:28:12.302Z,62.47
2019-04-04T19:30:42.114Z,62.70
2019-04-04T19:33:11.610Z,62.61
2019-04-04T19:35:41.062Z,62.61
2019-04-04T19:38:10.593Z,62.54
2019-04-04T19:40:40.117Z,62.40
2019-04-04T19:43:18.020Z,62.60
2019-04-04T19:45:40.805Z,62.71
2019-04-04T19:48:10.317Z,63.14
2019-04-04T19:50:39.769Z,63.19
2019-04-04T19:53:09.269Z,63.00
2019-04-04T19:55:42.316Z,63.22
2019-04-04T19:58:11.022Z,63.13
2019-04-04T20:00:40.470Z,63.70
2019-04-04T20:03:10.035Z,63.45
2019-04-04T20:05:39.508Z,63.69
2019-04-04T20:08:09.043Z,63.52
2019-04-04T20:10:38.550Z,63.56
2019-04-04T20:13:08.086Z,64.00
2019-04-04T20:15:37.594Z,63.79
2019-04-04T20:18:07.172Z,63.74
2019-04-04T20:20:37.288Z,63.89
2019-04-04T20:23:06.902Z,64.13
2019-04-04T20:25:36.587Z,64.27
2019-04-04T20:28:06.081Z,64.49
2019-04-04T20:30:40.402Z,64.67
2019-04-04T20:33:10.215Z,64.68
2019-04-04T20:35:39.679Z,64.68
2019-04-04T20:38:09.382Z,64.66
2019-04-04T20:40:38.976Z,64.76
2019-04-04T20:43:08.481Z,64.80
2019-04-04T20:45:38.028Z,65.00
2019-04-04T20:48:07.572Z,65.10
2019-04-04T20:50:37.135Z,65.17
2019-04-04T20:53:06.838Z,65.38
2019-04-04T20:55:36.336Z,65.43
2019-04-04T20:58:06.100Z,65.57
2019-04-04T21:00:35.630Z,65.70
2019-04-04T21:03:05.239Z,65.80
2019-04-04T21:05:34.863Z,65.77
2019-04-04T21:08:04.350Z,65.83
2019-04-04T21:10:33.846Z,65.99
2019-04-04T21:13:03.445Z,66.14
2019-04-04T21:15:33.003Z,66.26
2019-04-04T21:18:02.495Z,66.28
2019-04-04T21:20:31.986Z,66.40
2019-04-04T21:23:01.450Z,66.40
2019-04-04T21:25:31.499Z,66.40
2019-04-04T21:28:01.172Z,66.23
2019-04-04T21:30:30.641Z,66.48
2019-04-04T21:33:00.127Z,66.51
2019-04-04T21:35:29.662Z,66.41
2019-04-04T21:37:59.133Z,66.44
2019-04-04T21:40:28.791Z,66.37
2019-04-04T21:42:58.451Z,66.30
2019-04-04T21:45:27.924Z,66.12
2019-04-04T21:47:57.396Z,66.11
2019-04-04T21:50:26.865Z,66.04
2019-04-04T21:52:56.377Z,66.07
2019-04-04T21:55:25.869Z,65.98
2019-04-04T21:57:55.340Z,66.09
2019-04-04T22:00:26.650Z,66.01
2019-04-04T22:02:56.130Z,66.04
2019-04-04T22:05:25.663Z,65.88
2019-04-04T22:07:55.163Z,65.82
2019-04-04T22:10:24.657Z,65.94
2019-04-04T22:12:54.123Z,66.00
2019-04-04T22:15:23.694Z,65.93
2019-04-04T22:17:53.200Z,65.95
2019-04-04T22:20:22.801Z,65.94
2019-04-04T22:22:52.370Z,65.89
2019-04-04T22:25:22.380Z,65.88
2019-04-04T22:27:51.868Z,65.86
2019-04-04T22:30:21.470Z,65.75
2019-04-04T22:32:50.929Z,65.91
2019-04-04T22:35:20.379Z,65.93
2019-04-04T22:37:49.871Z,66.06
2019-04-04T22:40:19.429Z,65.94
2019-04-04T22:42:49.144Z,66.08
2019-04-04T22:45:18.848Z,66.02
2019-04-04T22:47:48.352Z,66.02
2019-04-04T22:50:17.991Z,66.13
2019-04-04T22:52:47.512Z,66.12
2019-04-04T22:55:16.978Z,66.08
2019-04-04T22:57:46.530Z,65.97
2019-04-04T23:00:16.892Z,65.85
2019-04-04T23:02:46.362Z,66.13
2019-04-04T23:05:15.873Z,66.10
2019-04-04T23:07:45.370Z,66.01
2019-04-04T23:10:15.247Z,66.00
2019-04-04T23:12:44.847Z,66.08
2019-04-04T23:15:14.333Z,66.23
2019-04-04T23:17:45.484Z,66.38
2019-04-04T23:20:15.344Z,66.54
2019-04-04T23:22:52.725Z,66.50
2019-04-04T23:25:16.020Z,66.45
2019-04-04T23:27:45.495Z,66.49
2019-04-04T23:30:15.388Z,66.47
2019-04-04T23:32:44.846Z,66.49
2019-04-04T23:35:16.644Z,66.64
2019-04-04T23:37:45.737Z,66.71
2019-04-04T23:40:15.264Z,66.88
2019-04-04T23:42:44.703Z,66.84
2019-04-04T23:45:14.261Z,66.90
2019-04-04T23:47:43.804Z,67.01
2019-04-04T23:50:13.663Z,67.05
2019-04-04T23:52:43.124Z,67.11
2019-04-04T23:55:12.677Z,67.22
2019-04-04T23:57:42.128Z,67.27
